• Join FlightAware (Why Join?)
  • Login
  • US Flag 
09:26AM EDT


 

Airport Tracker/Info


-or-


 

Live Flight TrackerFlight Track Log ✈ DAL571 ✈ 02-May-2013 ✈ KATL - TIST / STT

Flight Track Log - Related Links

Times and Time Zones

All times are in EDT time to prevent confusion due to time zone crossing. See the DAL571 flight status page for this flight to view local times or setup timezone preferences in your user account.

Time Position Orientation Groundspeed Altitude Reporting Facility
EDT Latitude Longitude Course Direction KTS MPH feet Rate Location/Type
10:40AM 33.6333 -84.4000 145° Southeast 166 191 2,600  Level Atlanta TRACON
10:41AM 33.6167 -84.3333 107° East 216 249 4,600 2,340 Climbing Atlanta TRACON
10:42AM 33.5833 -84.2833 129° Southeast 256 295 7,300 2,580 Climbing Atlanta TRACON
10:43AM 33.3532 -84.2364 140° Southeast  Level FlightAware Approximate
10:44AM 33.2535 -84.1366 140° Southeast  Level FlightAware Approximate
10:44AM 33.4372 -84.2778 178° South 271 312 12,200  Level Atlanta Center
10:45AM 33.1537 -84.0369 140° Southeast  Level FlightAware Approximate
10:45AM 33.3536 -84.2478 163° South 293 337 13,500  Level Atlanta Center
10:46AM 33.0566 -83.9443 145° Southeast  Level FlightAware Approximate
10:46AM 33.2808 -84.1731 139° Southeast 319 367 15,300  Level Atlanta Center
10:47AM 33.1972 -84.0908 141° Southeast 368 423 17,000 1,620 Climbing Atlanta Center
10:48AM 33.1117 -84.0067 141° Southeast 397 457 18,600 1,620 Climbing Atlanta Center
10:49AM 33.0114 -83.9125 142° Southeast 414 476 20,300 1,500 Climbing Atlanta Center
10:50AM 32.9092 -83.8311 146° Southeast 426 490 21,700 1,380 Climbing Atlanta Center
10:51AM 32.8067 -83.7472 145° Southeast 445 512 23,100 1,440 Climbing Atlanta Center
10:52AM 32.7019 -83.6586 145° Southeast 445 512 24,600 1,320 Climbing Atlanta Center
10:53AM 32.6036 -83.5631 141° Southeast 450 518 25,800 1,200 Climbing Atlanta Center
10:54AM 32.5050 -83.4650 140° Southeast 458 527 27,000 1,260 Climbing Atlanta Center
10:56AM 32.3039 -83.2589 139° Southeast 474 545 29,900 1,320 Climbing Jacksonville Center
10:57AM 32.2039 -83.1603 140° Southeast 474 545 31,200 1,200 Climbing Jacksonville Center
10:58AM 32.0975 -83.0569 141° Southeast 474 545 32,400 1,140 Climbing Jacksonville Center
10:59AM 31.9994 -82.9586 140° Southeast 468 539 33,500 780 Climbing Jacksonville Center
11:00AM 31.9033 -82.8656 141° Southeast 461 531 34,000 240 Climbing Jacksonville Center
11:01AM 31.8053 -82.7678 140° Southeast 461 531 34,000  Level Jacksonville Center
11:02AM 31.7069 -82.6753 141° Southeast 466 536 34,000  Level Jacksonville Center
11:03AM 31.6086 -82.5803 141° Southeast 466 536 34,000  Level Jacksonville Center
11:04AM 31.5083 -82.4856 141° Southeast 466 536 34,000  Level Jacksonville Center
11:05AM 31.4056 -82.3983 144° Southeast 466 536 34,000  Level Jacksonville Center
11:06AM 31.3031 -82.3164 146° Southeast 461 531 34,000  Level Jacksonville Center
11:07AM 31.2003 -82.2269 143° Southeast 455 524 34,000  Level Jacksonville Center
11:08AM 31.0994 -82.1428 144° Southeast 450 518 34,000  Level Jacksonville Center
11:09AM 30.9967 -82.0589 145° Southeast 450 518 34,000  Level Jacksonville Center
11:10AM 30.8958 -81.9725 144° Southeast 450 518 34,000  Level Jacksonville Center
11:11AM 30.8056 -81.8986 145° Southeast 450 518 34,000  Level Jacksonville Center
11:12AM 30.7044 -81.8125 144° Southeast 450 518 34,000  Level Jacksonville Center
11:13AM 30.6036 -81.7292 145° Southeast 450 518 34,000  Level Jacksonville Center
11:14AM 30.4983 -81.6436 145° Southeast 450 518 34,000  Level Jacksonville Center
11:15AM 30.3953 -81.5583 144° Southeast 455 524 34,000  Level Jacksonville Center
11:16AM 30.2858 -81.4781 148° Southeast 455 524 34,000  Level Jacksonville Center
11:17AM 30.1703 -81.4078 152° Southeast 460 529 34,000  Level Jacksonville Center
11:18AM 30.0586 -81.3397 152° Southeast 460 529 34,000 300 Level Jacksonville Center
11:20AM 29.9362 -81.2643 152° Southeast  Level FlightAware Approximate
11:20AM 29.8294 -81.2022 152° Southeast 460 529 35,000  Level Jacksonville Center
11:21AM 29.7136 -81.1325 152° Southeast 460 529 35,800 480 Climbing Jacksonville Center
11:22AM 29.6019 -81.0653 152° Southeast 460 529 36,000 60 Climbing Jacksonville Center
11:23AM 29.4883 -80.9958 152° Southeast 455 524 36,000  Level Jacksonville Center
11:24AM 29.3767 -80.9267 152° Southeast 455 524 36,000  Level Jacksonville Center
11:25AM 29.2628 -80.8550 151° Southeast 460 529 36,000  Level Jacksonville Center
11:26AM 29.2014 -80.8239 156° South 457 526 36,000  Level Miami Center
11:27AM 29.0864 -80.7558 153° Southeast 471 542 36,000  Level Miami Center
11:28AM 28.9717 -80.6853 152° Southeast 471 542 36,000  Level Miami Center
11:29AM 28.8731 -80.6203 150° Southeast 452 520 36,000  Level Miami Center
11:30AM 28.7842 -80.5131 133° Southeast 464 534 36,000  Level Miami Center
11:31AM 28.7000 -80.3731 124° Southeast 476 548 36,000  Level Miami Center
11:32AM 28.6239 -80.2453 124° Southeast 488 562 36,000  Level Miami Center
11:33AM 28.5475 -80.1203 125° Southeast 496 571 36,000  Level Miami Center
11:34AM 28.4792 -80.0047 124° Southeast 491 565 36,000  Level Miami Center
11:35AM 28.4003 -79.8822 126° Southeast 491 565 36,000  Level Miami Center
11:36AM 28.3217 -79.7528 125° Southeast 491 565 36,000 180 Level Miami Center
11:37AM 28.2447 -79.6236 124° Southeast 491 565 36,400 480 Climbing Miami Center
11:38AM 28.1658 -79.4967 125° Southeast 497 572 37,000 360 Climbing Miami Center
11:39AM 28.0867 -79.3678 125° Southeast 497 572 37,200 480 Climbing Miami Center
11:40AM 28.0094 -79.2392 124° Southeast 497 572 38,000 360 Climbing Miami Center
11:41AM 27.9300 -79.1153 126° Southeast 497 572 38,000  Level Miami Center
11:42AM 27.8467 -78.9725 123° Southeast 497 572 38,000 60 Level Miami Center
11:43AM 27.7753 -78.8564 125° Southeast 498 573 38,200 360 Climbing Miami Center
11:44AM 27.6975 -78.7306 125° Southeast 498 573 38,800 360 Climbing Miami Center
11:45AM 27.6197 -78.6075 125° Southeast 493 567 39,000 60 Climbing Miami Center
11:46AM 27.5439 -78.4797 124° Southeast 493 567 39,000  Level Miami Center
11:47AM 27.4744 -78.3500 121° Southeast 493 567 39,000  Level Miami Center
11:48AM 27.3919 -78.2228 126° Southeast 493 567 39,000  Level Miami Center
11:49AM 27.3158 -78.0956 124° Southeast 493 567 39,000  Level Miami Center
11:50AM 27.2378 -77.9614 123° Southeast 493 567 39,000  Level Miami Center
11:51AM 27.1614 -77.8300 123° Southeast 505 581 39,000  Level Miami Center
11:52AM 27.0828 -77.6964 123° Southeast 511 588 39,000  Level Miami Center
11:53AM 27.0042 -77.5628 123° Southeast 506 582 39,000  Level Miami Center
11:54AM 26.9192 -77.4156 123° Southeast 515 593 39,000  Level Miami Center
11:55AM 26.8422 -77.2756 122° Southeast 522 601 39,000  Level Miami Center
11:56AM 26.7672 -77.1425 122° Southeast 522 601 39,000  Level Miami Center
11:57AM 26.6903 -76.9983 121° Southeast 527 606 39,000  Level Miami Center
11:58AM 26.6089 -76.8564 123° Southeast 527 606 39,000  Level Miami Center
11:59AM 26.5272 -76.7286 126° Southeast 532 612 39,000  Level Miami Center
12:00PM 26.4456 -76.5942 124° Southeast 527 606 39,000 -360 Level Miami Center
12:01PM 26.3639 -76.4553 123° Southeast 527 606 38,300 -660 Descending Miami Center
12:02PM 26.2861 -76.3256 124° Southeast 524 603 37,700 -720 Descending Miami Center
12:03PM 26.2081 -76.1894 123° Southeast 517 595 36,900 -720 Descending Miami Center
12:04PM 26.1344 -76.0647 123° Southeast 502 578 36,300 -780 Descending Miami Center
12:05PM 26.0542 -75.9358 125° Southeast 497 572 35,400 -660 Descending Miami Center
12:06PM 25.9719 -75.8047 125° Southeast 497 572 35,000 -240 Descending Miami Center
12:07PM 25.8872 -75.6692 125° Southeast 515 593 35,000  Level Miami Center
12:08PM 25.8044 -75.5339 124° Southeast 520 598 35,000  Level Miami Center
12:09PM 25.7367 -75.4308 126° Southeast 520 598 35,000  Level Miami Center
12:10PM 25.6431 -75.2775 124° Southeast 535 616 35,000  Level Miami Center
12:11PM 25.5517 -75.1289 124° Southeast 535 616 35,000  Level Miami Center
12:12PM 25.4664 -74.9967 126° Southeast 541 623 35,000  Level Miami Center
12:13PM 25.3811 -74.8575 124° Southeast 541 623 35,000  Level Miami Center
12:14PM 25.2933 -74.7236 126° Southeast 541 623 35,000  Level Miami Center
12:15PM 25.2056 -74.5825 124° Southeast 541 623 35,000  Level Miami Center
12:16PM 25.1200 -74.4511 126° Southeast 541 623 35,000 -180 Level Miami Center
12:17PM 25.0319 -74.3131 125° Southeast 541 623 34,700 -600 Descending Miami Center
12:18PM 24.9481 -74.1794 125° Southeast 541 623 33,900 -900 Descending Miami Center
12:19PM 24.8578 -74.0419 126° Southeast 541 623 33,000 -480 Descending Miami Center
12:20PM 24.7717 -73.9089 125° Southeast 541 623 33,000  Level Miami Center
12:21PM 24.6833 -73.7736 126° Southeast 541 623 33,000  Level Miami Center
12:22PM 24.5989 -73.6411 125° Southeast 541 623 33,000 540 Level Miami Center
12:23PM 24.5103 -73.5064 126° Southeast 534 615 34,100 900 Climbing Miami Center
12:24PM 24.4214 -73.3719 126° Southeast 541 623 34,900 420 Climbing Miami Center
12:25PM 24.3347 -73.2375 125° Southeast 534 615 35,000  Climbing Miami Center
12:26PM 24.2456 -73.1011 126° Southeast 545 627 35,000  Level Miami Center
12:27PM 24.1586 -72.9694 126° Southeast 545 627 35,000  Level Miami Center
12:28PM 24.0694 -72.8358 126° Southeast 538 619 35,000  Level Miami Center
12:29PM 23.9822 -72.7022 126° Southeast 538 619 35,000  Level Miami Center
12:30PM 23.8867 -72.5667 128° Southeast 545 627 35,000 -300 Level Miami Center
12:31PM 23.8033 -72.4356 125° Southeast 539 620 34,400 -840 Descending Miami Center
12:32PM 23.7136 -72.3006 126° Southeast 539 620 33,400 -720 Descending Miami Center
12:33PM 23.6261 -72.1678 126° Southeast 539 620 33,000 -240 Descending Miami Center
12:34PM 23.5364 -72.0372 127° Southeast 538 619 33,000  Level Miami Center
12:35PM 23.4486 -71.9094 127° Southeast 538 619 33,000  Level Miami Center
12:36PM 23.3608 -71.7839 127° Southeast 532 612 33,000  Level Miami Center
12:37PM 23.2728 -71.6475 125° Southeast 539 620 33,000  Level Miami Center
12:38PM 23.1825 -71.5178 127° Southeast 539 620 33,000  Level Miami Center
12:39PM 23.0964 -71.3883 126° Southeast 539 620 33,000  Level Miami Center
12:40PM 23.0103 -71.2589 126° Southeast 534 615 33,000  Level Miami Center
12:41PM 22.9242 -71.1342 127° Southeast 534 615 33,000  Level Miami Center
12:42PM 22.8358 -71.0031 126° Southeast 534 615 33,000  Level Miami Center
12:43PM 22.7472 -70.8767 127° Southeast 534 615 33,000  Level Miami Center
12:44PM 22.6631 -70.7500 126° Southeast 534 615 33,000  Level Miami Center
12:45PM 22.5742 -70.6194 126° Southeast 534 615 33,000  Level Miami Center
12:46PM 22.4856 -70.4936 127° Southeast 534 615 33,000  Level Miami Center
12:47PM 22.3964 -70.3633 126° Southeast 534 615 33,000  Level Miami Center
12:48PM 22.3056 -70.2356 128° Southeast 539 620 33,000  Level Miami Center
12:49PM 22.2183 -70.1056 126° Southeast 539 620 33,000  Level Miami Center
12:50PM 22.1269 -69.9761 127° Southeast 539 620 33,000  Level Miami Center
12:51PM 22.0381 -69.8508 127° Southeast 534 615 33,000  Level Miami Center
12:52PM 21.9464 -69.7194 127° Southeast 539 620 33,000  Level Miami Center
12:53PM 21.8550 -69.5925 128° Southeast 539 620 33,000  Level Miami Center
12:54PM 21.7633 -69.4639 127° Southeast 539 620 33,000  Level Miami Center
12:55PM 21.6828 -69.3522 128° Southeast 539 620 33,000  Level Miami Center
12:57PM 21.5056 -69.0972 127° Southeast 539 620 33,000  Level Miami Center
12:58PM 21.4094 -68.9694 129° Southeast 539 620 33,000  Level Miami Center
12:59PM 21.3256 -68.8408 125° Southeast 539 620 33,000  Level Miami Center
01:00PM 21.2358 -68.7175 128° Southeast 539 620 33,000  Level Miami Center
01:01PM 21.1394 -68.5900 129° Southeast 539 620 33,000  Level Miami Center
01:02PM 21.0494 -68.4647 128° Southeast 539 620 33,000  Level Miami Center
01:03PM 20.9572 -68.3397 128° Southeast 539 620 33,000  Level Miami Center
01:04PM 20.8647 -68.2103 127° Southeast 539 620 33,000  Level Miami Center
01:05PM 20.7744 -68.0856 128° Southeast 539 620 33,000  Level Miami Center
01:06PM 20.6800 -67.9656 130° Southeast 539 620 33,000  Level Miami Center
01:07PM 20.5814 -67.8394 130° Southeast 539 620 33,000  Level Miami Center
01:08PM 20.4908 -67.7150 128° Southeast 545 627 33,000  Level Miami Center
01:09PM 20.4167 -67.6000 125° Southeast 540 621 33,000  Level San Juan Center
01:10PM 20.3167 -67.4833 132° Southeast 540 621 33,000  Level San Juan Center
01:11PM 20.2333 -67.3500 124° Southeast 540 621 33,000  Level San Juan Center
01:12PM 20.1333 -67.2333 132° Southeast 540 621 33,000  Level San Juan Center
01:13PM 20.0333 -67.1167 132° Southeast 540 621 33,000  Level San Juan Center
01:14PM 19.9333 -66.9833 129° Southeast 540 621 33,000  Level San Juan Center
01:15PM 19.8500 -66.8667 127° Southeast 540 621 33,000  Level San Juan Center
01:16PM 19.7500 -66.7333 129° Southeast 540 621 33,000  Level San Juan Center
01:17PM 19.6500 -66.6167 132° Southeast 540 621 33,000  Level San Juan Center
01:18PM 19.5500 -66.4833 129° Southeast 540 621 33,000 -120 Level San Juan Center
01:19PM 19.4500 -66.3667 132° Southeast 550 633 32,800 -1,560 Descending San Juan Center
01:20PM 19.3667 -66.2500 127° Southeast 530 610 29,900 -3,180 Descending San Juan Center
01:21PM 19.2667 -66.1167 128° Southeast 530 610 26,500 -2,760 Descending San Juan Center
01:22PM 19.1667 -66.0000 132° Southeast 530 610 24,400 -2,100 Descending San Juan Center
01:23PM 19.0833 -65.8667 123° Southeast 490 564 22,300 -2,460 Descending San Juan Center
01:24PM 18.9833 -65.7667 137° Southeast 470 541 19,500 -2,760 Descending San Juan Center
01:25PM 18.9000 -65.6500 127° Southeast 460 529 16,800 -2,700 Descending San Juan Center
01:26PM 18.8333 -65.5500 125° Southeast 440 506 14,200 -2,460 Descending San Juan Center
01:27PM 18.7500 -65.4667 137° Southeast 410 472 11,900 -2,400 Descending San Juan Center
01:28PM 18.6500 -65.4000 148° Southeast 400 460 9,400 -2,760 Descending San Juan Center
01:29PM 18.5667 -65.3500 150° Southeast 370 426 6,400 -2,940 Descending San Juan Center
01:30PM 18.4833 -65.2833 143° Southeast 370 426 3,500 -1,740 Descending San Juan Center
01:31PM 18.4000 -65.2333 150° Southeast 330 380 3,000 -360 Descending San Juan Center
01:32PM 18.3500 -65.1833 136° Southeast 270 311 2,800 -240 Descending San Juan Center